sensor_id;sensor_type;location;lat;lon;timestamp;pressure;altitude;pressure_sealevel;temperature;humidity
9187;BME280;7273;48.902;9.410;2022-07-18T00:01:31;98745.25;;;18.28;41.26
9187;BME280;7273;48.902;9.410;2022-07-18T00:03:58;98747.09;;;18.19;41.53
9187;BME280;7273;48.902;9.410;2022-07-18T00:06:24;98740.44;;;18.11;41.48
9187;BME280;7273;48.902;9.410;2022-07-18T00:08:49;98738.63;;;18.07;41.60
9187;BME280;7273;48.902;9.410;2022-07-18T00:11:15;98747.31;;;18.09;41.59
9187;BME280;7273;48.902;9.410;2022-07-18T00:13:40;98746.31;;;18.05;41.55
9187;BME280;7273;48.902;9.410;2022-07-18T00:16:06;98739.84;;;18.01;41.64
9187;BME280;7273;48.902;9.410;2022-07-18T00:18:32;98736.31;;;18.00;41.60
9187;BME280;7273;48.902;9.410;2022-07-18T00:20:57;98746.94;;;18.02;41.58
9187;BME280;7273;48.902;9.410;2022-07-18T00:23:22;98746.44;;;18.00;41.70
9187;BME280;7273;48.902;9.410;2022-07-18T00:25:48;98746.03;;;17.93;41.70
9187;BME280;7273;48.902;9.410;2022-07-18T00:28:13;98743.50;;;17.96;41.60
9187;BME280;7273;48.902;9.410;2022-07-18T00:30:39;98743.53;;;17.83;41.76
9187;BME280;7273;48.902;9.410;2022-07-18T00:33:05;98750.00;;;17.87;41.75
9187;BME280;7273;48.902;9.410;2022-07-18T00:35:31;98751.53;;;17.79;41.75
9187;BME280;7273;48.902;9.410;2022-07-18T00:37:56;98750.13;;;17.82;41.85
9187;BME280;7273;48.902;9.410;2022-07-18T00:40:21;98746.06;;;17.79;41.70
9187;BME280;7273;48.902;9.410;2022-07-18T00:42:47;98753.69;;;17.82;41.77
9187;BME280;7273;48.902;9.410;2022-07-18T00:45:13;98746.38;;;17.78;41.53
9187;BME280;7273;48.902;9.410;2022-07-18T00:47:38;98745.34;;;17.87;41.15
9187;BME280;7273;48.902;9.410;2022-07-18T00:50:04;98749.31;;;17.81;41.39
9187;BME280;7273;48.902;9.410;2022-07-18T00:52:32;98738.50;;;17.63;44.00
9187;BME280;7273;48.902;9.410;2022-07-18T00:54:57;98744.34;;;17.42;42.06
9187;BME280;7273;48.902;9.410;2022-07-18T00:57:23;98750.72;;;17.38;41.70
9187;BME280;7273;48.902;9.410;2022-07-18T00:59:49;98751.22;;;17.13;42.21
9187;BME280;7273;48.902;9.410;2022-07-18T01:02:33;98748.06;;;17.06;42.37
9187;BME280;7273;48.902;9.410;2022-07-18T01:04:58;98755.72;;;17.04;42.27
9187;BME280;7273;48.902;9.410;2022-07-18T01:07:24;98746.84;;;16.98;42.43
9187;BME280;7273;48.902;9.410;2022-07-18T01:09:49;98747.34;;;17.00;42.35
9187;BME280;7273;48.902;9.410;2022-07-18T01:12:15;98738.03;;;17.01;42.38
9187;BME280;7273;48.902;9.410;2022-07-18T01:14:41;98742.19;;;16.99;42.50
9187;BME280;7273;48.902;9.410;2022-07-18T01:17:14;98742.75;;;16.96;43.05
9187;BME280;7273;48.902;9.410;2022-07-18T01:19:40;98743.28;;;16.98;42.46
9187;BME280;7273;48.902;9.410;2022-07-18T01:22:05;98744.31;;;17.02;42.54
9187;BME280;7273;48.902;9.410;2022-07-18T01:24:30;98735.59;;;17.00;42.33
9187;BME280;7273;48.902;9.410;2022-07-18T01:26:56;98731.25;;;16.99;42.19
9187;BME280;7273;48.902;9.410;2022-07-18T01:29:21;98739.34;;;17.04;42.14
9187;BME280;7273;48.902;9.410;2022-07-18T01:31:47;98732.16;;;17.08;42.08
9187;BME280;7273;48.902;9.410;2022-07-18T01:34:12;98730.13;;;17.00;42.17
9187;BME280;7273;48.902;9.410;2022-07-18T01:36:38;98732.66;;;16.96;42.38
9187;BME280;7273;48.902;9.410;2022-07-18T01:39:04;98734.25;;;16.97;42.32
9187;BME280;7273;48.902;9.410;2022-07-18T01:41:29;98740.34;;;16.94;42.53
9187;BME280;7273;48.902;9.410;2022-07-18T01:43:55;98734.66;;;16.91;42.61
9187;BME280;7273;48.902;9.410;2022-07-18T01:46:20;98741.34;;;16.85;42.58
9187;BME280;7273;48.902;9.410;2022-07-18T01:48:46;98736.09;;;16.88;42.66
9187;BME280;7273;48.902;9.410;2022-07-18T01:51:11;98737.28;;;16.82;42.87
9187;BME280;7273;48.902;9.410;2022-07-18T01:53:41;98733.75;;;16.82;42.93
9187;BME280;7273;48.902;9.410;2022-07-18T01:56:07;98732.00;;;16.72;42.89
9187;BME280;7273;48.902;9.410;2022-07-18T01:58:33;98740.38;;;16.62;43.16
9187;BME280;7273;48.902;9.410;2022-07-18T02:00:59;98747.19;;;16.46;43.67
9187;BME280;7273;48.902;9.410;2022-07-18T02:03:24;98748.84;;;16.42;43.84
9187;BME280;7273;48.902;9.410;2022-07-18T02:05:49;98735.28;;;16.37;43.57
9187;BME280;7273;48.902;9.410;2022-07-18T02:08:15;98746.19;;;16.37;43.59
9187;BME280;7273;48.902;9.410;2022-07-18T02:10:40;98745.19;;;16.33;43.85
9187;BME280;7273;48.902;9.410;2022-07-18T02:13:06;98746.34;;;16.27;43.91
9187;BME280;7273;48.902;9.410;2022-07-18T02:15:31;98736.03;;;16.24;43.97
9187;BME280;7273;48.902;9.410;2022-07-18T02:17:57;98740.69;;;16.24;43.99
9187;BME280;7273;48.902;9.410;2022-07-18T02:20:24;98744.00;;;16.21;43.94
9187;BME280;7273;48.902;9.410;2022-07-18T02:22:49;98738.34;;;16.17;44.04
9187;BME280;7273;48.902;9.410;2022-07-18T02:25:14;98750.13;;;16.12;44.07
9187;BME280;7273;48.902;9.410;2022-07-18T02:27:40;98748.75;;;16.15;43.97
9187;BME280;7273;48.902;9.410;2022-07-18T02:30:07;98751.25;;;16.11;44.34
9187;BME280;7273;48.902;9.410;2022-07-18T02:32:33;98744.44;;;16.09;44.37
9187;BME280;7273;48.902;9.410;2022-07-18T02:35:03;98745.84;;;16.06;44.50
9187;BME280;7273;48.902;9.410;2022-07-18T02:37:29;98750.28;;;16.02;44.42
9187;BME280;7273;48.902;9.410;2022-07-18T02:39:54;98746.81;;;15.97;44.71
9187;BME280;7273;48.902;9.410;2022-07-18T02:42:19;98755.59;;;15.94;44.56
9187;BME280;7273;48.902;9.410;2022-07-18T02:44:45;98752.88;;;15.94;44.75
9187;BME280;7273;48.902;9.410;2022-07-18T02:47:11;98746.44;;;15.85;44.75
9187;BME280;7273;48.902;9.410;2022-07-18T02:49:36;98756.25;;;15.86;44.77
9187;BME280;7273;48.902;9.410;2022-07-18T02:52:06;98750.88;;;15.81;45.05
9187;BME280;7273;48.902;9.410;2022-07-18T02:54:33;98756.88;;;15.78;45.18
9187;BME280;7273;48.902;9.410;2022-07-18T02:56:59;98754.97;;;15.78;44.80
9187;BME280;7273;48.902;9.410;2022-07-18T02:59:26;98749.00;;;15.76;45.20
9187;BME280;7273;48.902;9.410;2022-07-18T03:01:52;98758.34;;;15.70;45.02
9187;BME280;7273;48.902;9.410;2022-07-18T03:04:18;98756.22;;;15.67;45.25
9187;BME280;7273;48.902;9.410;2022-07-18T03:06:45;98758.94;;;15.67;44.93
9187;BME280;7273;48.902;9.410;2022-07-18T03:09:11;98760.91;;;15.62;45.35
9187;BME280;7273;48.902;9.410;2022-07-18T03:11:37;98751.94;;;15.61;44.99
9187;BME280;7273;48.902;9.410;2022-07-18T03:14:02;98757.66;;;15.60;45.30
9187;BME280;7273;48.902;9.410;2022-07-18T03:16:28;98756.63;;;15.56;44.91
9187;BME280;7273;48.902;9.410;2022-07-18T03:18:54;98754.72;;;15.56;44.97
9187;BME280;7273;48.902;9.410;2022-07-18T03:21:19;98753.69;;;15.52;45.11
9187;BME280;7273;48.902;9.410;2022-07-18T03:23:46;98756.16;;;15.49;45.13
9187;BME280;7273;48.902;9.410;2022-07-18T03:26:12;98754.84;;;15.46;45.24
9187;BME280;7273;48.902;9.410;2022-07-18T03:28:37;98757.34;;;15.43;45.52
9187;BME280;7273;48.902;9.410;2022-07-18T03:31:03;98757.06;;;15.44;45.34
9187;BME280;7273;48.902;9.410;2022-07-18T03:33:29;98756.75;;;15.46;45.24
9187;BME280;7273;48.902;9.410;2022-07-18T03:35:54;98757.34;;;15.43;45.48
9187;BME280;7273;48.902;9.410;2022-07-18T03:38:20;98760.66;;;15.40;45.73
9187;BME280;7273;48.902;9.410;2022-07-18T03:40:45;98759.53;;;15.41;45.52
9187;BME280;7273;48.902;9.410;2022-07-18T03:43:11;98759.53;;;15.41;45.61
9187;BME280;7273;48.902;9.410;2022-07-18T03:45:36;98756.28;;;15.39;45.73
9187;BME280;7273;48.902;9.410;2022-07-18T03:48:02;98758.19;;;15.38;45.92
9187;BME280;7273;48.902;9.410;2022-07-18T03:50:27;98756.03;;;15.35;45.94
9187;BME280;7273;48.902;9.410;2022-07-18T03:52:53;98760.97;;;15.33;46.17
9187;BME280;7273;48.902;9.410;2022-07-18T03:55:19;98759.84;;;15.34;45.75
9187;BME280;7273;48.902;9.410;2022-07-18T03:57:44;98753.28;;;15.35;45.77
9187;BME280;7273;48.902;9.410;2022-07-18T04:00:11;98753.03;;;15.37;46.02
9187;BME280;7273;48.902;9.410;2022-07-18T04:02:39;98754.16;;;15.31;46.22
9187;BME280;7273;48.902;9.410;2022-07-18T04:05:05;98756.38;;;15.29;46.21
9187;BME280;7273;48.902;9.410;2022-07-18T04:07:30;98751.44;;;15.31;46.12
9187;BME280;7273;48.902;9.410;2022-07-18T04:09:56;98752.84;;;15.28;45.93
9187;BME280;7273;48.902;9.410;2022-07-18T04:12:21;98756.94;;;15.26;46.14
9187;BME280;7273;48.902;9.410;2022-07-18T04:14:47;98753.44;;;15.25;46.08
9187;BME280;7273;48.902;9.410;2022-07-18T04:17:12;98759.69;;;15.26;46.17
9187;BME280;7273;48.902;9.410;2022-07-18T04:19:37;98757.53;;;15.23;46.17
9187;BME280;7273;48.902;9.410;2022-07-18T04:22:03;98751.50;;;15.26;46.41
9187;BME280;7273;48.902;9.410;2022-07-18T04:24:28;98758.34;;;15.23;46.43
9187;BME280;7273;48.902;9.410;2022-07-18T04:26:53;98752.09;;;15.23;46.43
9187;BME280;7273;48.902;9.410;2022-07-18T04:29:19;98754.28;;;15.21;46.44
9187;BME280;7273;48.902;9.410;2022-07-18T04:31:44;98743.09;;;15.22;46.55
9187;BME280;7273;48.902;9.410;2022-07-18T04:34:10;98751.50;;;15.26;46.58
9187;BME280;7273;48.902;9.410;2022-07-18T04:36:35;98752.03;;;15.28;46.75
9187;BME280;7273;48.902;9.410;2022-07-18T04:39:01;98748.44;;;15.32;46.72
9187;BME280;7273;48.902;9.410;2022-07-18T04:41:26;98748.13;;;15.34;46.78
9187;BME280;7273;48.902;9.410;2022-07-18T04:43:52;98746.22;;;15.34;46.82
9187;BME280;7273;48.902;9.410;2022-07-18T04:46:17;98745.13;;;15.35;46.52
9187;BME280;7273;48.902;9.410;2022-07-18T04:48:43;98749.16;;;15.43;46.61
9187;BME280;7273;48.902;9.410;2022-07-18T04:51:08;98744.00;;;15.41;46.63
9187;BME280;7273;48.902;9.410;2022-07-18T04:53:34;98749.69;;;15.45;46.83
9187;BME280;7273;48.902;9.410;2022-07-18T04:55:59;98751.84;;;15.48;46.67
9187;BME280;7273;48.902;9.410;2022-07-18T04:58:24;98751.78;;;15.53;46.81
9187;BME280;7273;48.902;9.410;2022-07-18T05:00:50;98758.47;;;15.60;46.85
9187;BME280;7273;48.902;9.410;2022-07-18T05:03:15;98757.09;;;15.63;47.01
9187;BME280;7273;48.902;9.410;2022-07-18T05:05:41;98754.22;;;15.73;46.94
9187;BME280;7273;48.902;9.410;2022-07-18T05:08:06;98751.94;;;15.80;46.75
9187;BME280;7273;48.902;9.410;2022-07-18T05:10:32;98751.81;;;15.90;46.57
9187;BME280;7273;48.902;9.410;2022-07-18T05:12:58;98752.81;;;15.99;46.38
9187;BME280;7273;48.902;9.410;2022-07-18T05:15:24;98747.16;;;16.09;46.39
9187;BME280;7273;48.902;9.410;2022-07-18T05:17:51;98745.72;;;16.17;46.55
9187;BME280;7273;48.902;9.410;2022-07-18T05:20:18;98749.59;;;16.29;46.43
9187;BME280;7273;48.902;9.410;2022-07-18T05:22:44;98746.81;;;16.34;46.54
9187;BME280;7273;48.902;9.410;2022-07-18T05:25:11;98752.09;;;16.44;46.58
9187;BME280;7273;48.902;9.410;2022-07-18T05:27:37;98759.78;;;16.61;46.48
9187;BME280;7273;48.902;9.410;2022-07-18T05:30:05;98754.66;;;16.73;46.32
9187;BME280;7273;48.902;9.410;2022-07-18T05:32:32;98750.66;;;16.84;45.98
9187;BME280;7273;48.902;9.410;2022-07-18T05:34:58;98752.59;;;16.97;45.87
9187;BME280;7273;48.902;9.410;2022-07-18T05:37:24;98747.44;;;17.09;45.72
9187;BME280;7273;48.902;9.410;2022-07-18T05:39:50;98755.38;;;17.24;45.56
9187;BME280;7273;48.902;9.410;2022-07-18T05:42:17;98754.34;;;17.33;45.41
9187;BME280;7273;48.902;9.410;2022-07-18T05:44:43;98752.78;;;17.46;45.31
9187;BME280;7273;48.902;9.410;2022-07-18T05:47:08;98750.53;;;17.62;45.32
9187;BME280;7273;48.902;9.410;2022-07-18T05:49:34;98750.63;;;17.84;45.13
9187;BME280;7273;48.902;9.410;2022-07-18T05:51:59;98756.38;;;17.96;44.95
9187;BME280;7273;48.902;9.410;2022-07-18T05:54:24;98749.75;;;18.10;44.86
9187;BME280;7273;48.902;9.410;2022-07-18T05:56:51;98751.94;;;18.22;44.86
9187;BME280;7273;48.902;9.410;2022-07-18T05:59:18;98751.09;;;18.35;44.92
9187;BME280;7273;48.902;9.410;2022-07-18T06:01:44;98747.50;;;18.48;44.68
9187;BME280;7273;48.902;9.410;2022-07-18T06:04:09;98755.50;;;18.58;44.63
9187;BME280;7273;48.902;9.410;2022-07-18T06:06:36;98753.94;;;18.65;44.56
9187;BME280;7273;48.902;9.410;2022-07-18T06:09:03;98751.88;;;18.71;44.50
9187;BME280;7273;48.902;9.410;2022-07-18T06:11:29;98757.72;;;18.78;44.63
9187;BME280;7273;48.902;9.410;2022-07-18T06:13:55;98760.41;;;18.92;44.44
9187;BME280;7273;48.902;9.410;2022-07-18T06:16:20;98754.78;;;18.97;44.40
9187;BME280;7273;48.902;9.410;2022-07-18T06:18:46;98748.59;;;19.13;44.31
9187;BME280;7273;48.902;9.410;2022-07-18T06:21:11;98750.22;;;19.14;44.41
9187;BME280;7273;48.902;9.410;2022-07-18T06:23:37;98755.56;;;19.19;44.29
9187;BME280;7273;48.902;9.410;2022-07-18T06:26:02;98746.63;;;19.36;44.31
9187;BME280;7273;48.902;9.410;2022-07-18T06:28:28;98750.06;;;19.50;43.94
9187;BME280;7273;48.902;9.410;2022-07-18T06:30:54;98737.41;;;19.88;43.52
9187;BME280;7273;48.902;9.410;2022-07-18T06:33:20;98736.06;;;20.25;42.84
9187;BME280;7273;48.902;9.410;2022-07-18T06:35:46;98741.84;;;20.40;42.65
9187;BME280;7273;48.902;9.410;2022-07-18T06:38:12;98751.22;;;20.48;42.49
9187;BME280;7273;48.902;9.410;2022-07-18T06:40:38;98741.03;;;20.65;42.42
9187;BME280;7273;48.902;9.410;2022-07-18T06:43:03;98743.25;;;20.80;42.33
9187;BME280;7273;48.902;9.410;2022-07-18T06:45:29;98748.09;;;20.92;42.12
9187;BME280;7273;48.902;9.410;2022-07-18T06:47:54;98744.53;;;21.08;42.08
9187;BME280;7273;48.902;9.410;2022-07-18T06:50:20;98745.41;;;21.29;41.96
9187;BME280;7273;48.902;9.410;2022-07-18T06:52:46;98747.03;;;21.68;41.39
9187;BME280;7273;48.902;9.410;2022-07-18T06:55:13;98737.09;;;21.84;41.17
9187;BME280;7273;48.902;9.410;2022-07-18T06:57:40;98749.47;;;21.99;41.00
9187;BME280;7273;48.902;9.410;2022-07-18T07:00:08;98747.69;;;22.23;40.71
9187;BME280;7273;48.902;9.410;2022-07-18T07:02:38;98736.88;;;22.59;40.13
9187;BME280;7273;48.902;9.410;2022-07-18T07:05:04;98743.72;;;22.74;40.04
9187;BME280;7273;48.902;9.410;2022-07-18T07:07:30;98738.81;;;22.92;40.20
9187;BME280;7273;48.902;9.410;2022-07-18T07:09:56;98740.25;;;22.98;39.98
9187;BME280;7273;48.902;9.410;2022-07-18T07:12:21;98737.84;;;23.08;39.86
9187;BME280;7273;48.902;9.410;2022-07-18T07:14:46;98733.44;;;23.40;39.34
9187;BME280;7273;48.902;9.410;2022-07-18T07:17:12;98736.22;;;23.64;39.03
9187;BME280;7273;48.902;9.410;2022-07-18T07:19:37;98738.16;;;23.75;38.94
9187;BME280;7273;48.902;9.410;2022-07-18T07:22:03;98739.19;;;23.95;38.97
9187;BME280;7273;48.902;9.410;2022-07-18T07:24:28;98739.69;;;24.09;38.80
9187;BME280;7273;48.902;9.410;2022-07-18T07:26:54;98738.88;;;24.09;38.77
9187;BME280;7273;48.902;9.410;2022-07-18T07:29:19;98733.22;;;24.17;38.76
9187;BME280;7273;48.902;9.410;2022-07-18T07:31:45;98733.50;;;24.28;38.70
9187;BME280;7273;48.902;9.410;2022-07-18T07:34:10;98727.03;;;24.36;38.72
9187;BME280;7273;48.902;9.410;2022-07-18T07:36:36;98736.56;;;24.50;38.49
9187;BME280;7273;48.902;9.410;2022-07-18T07:39:02;98728.59;;;24.49;38.53
9187;BME280;7273;48.902;9.410;2022-07-18T07:41:27;98740.91;;;24.63;38.58
9187;BME280;7273;48.902;9.410;2022-07-18T07:43:52;98737.84;;;24.80;38.24
9187;BME280;7273;48.902;9.410;2022-07-18T07:46:18;98736.19;;;24.91;38.40
9187;BME280;7273;48.902;9.410;2022-07-18T07:48:43;98735.47;;;24.94;38.47
9187;BME280;7273;48.902;9.410;2022-07-18T07:51:09;98730.50;;;25.00;38.36
9187;BME280;7273;48.902;9.410;2022-07-18T07:53:35;98735.31;;;25.03;38.14
9187;BME280;7273;48.902;9.410;2022-07-18T07:56:00;98725.50;;;25.21;38.27
9187;BME280;7273;48.902;9.410;2022-07-18T07:58:25;98728.84;;;25.27;38.03
9187;BME280;7273;48.902;9.410;2022-07-18T08:00:51;98728.22;;;25.33;38.15
9187;BME280;7273;48.902;9.410;2022-07-18T08:03:16;98718.78;;;25.50;38.15
9187;BME280;7273;48.902;9.410;2022-07-18T08:05:48;98725.47;;;25.64;37.38
9187;BME280;7273;48.902;9.410;2022-07-18T08:08:15;98715.72;;;25.70;38.09
9187;BME280;7273;48.902;9.410;2022-07-18T08:10:41;98717.66;;;25.85;38.09
9187;BME280;7273;48.902;9.410;2022-07-18T08:13:06;98719.16;;;25.98;37.91
9187;BME280;7273;48.902;9.410;2022-07-18T08:15:32;98724.16;;;26.08;37.72
9187;BME280;7273;48.902;9.410;2022-07-18T08:17:57;98717.25;;;26.18;37.46
9187;BME280;7273;48.902;9.410;2022-07-18T08:20:23;98715.41;;;26.25;37.74
9187;BME280;7273;48.902;9.410;2022-07-18T08:22:53;98716.09;;;26.38;37.31
9187;BME280;7273;48.902;9.410;2022-07-18T08:25:20;98717.94;;;26.50;37.69
9187;BME280;7273;48.902;9.410;2022-07-18T08:27:46;98717.34;;;26.60;37.42
9187;BME280;7273;48.902;9.410;2022-07-18T08:30:11;98715.63;;;26.71;37.69
9187;BME280;7273;48.902;9.410;2022-07-18T08:32:37;98715.78;;;26.78;37.60
9187;BME280;7273;48.902;9.410;2022-07-18T08:35:02;98708.38;;;26.85;37.70
9187;BME280;7273;48.902;9.410;2022-07-18T08:37:28;98710.63;;;26.99;37.52
9187;BME280;7273;48.902;9.410;2022-07-18T08:39:53;98715.25;;;27.14;37.65
9187;BME280;7273;48.902;9.410;2022-07-18T08:42:22;98717.50;;;27.27;37.32
9187;BME280;7273;48.902;9.410;2022-07-18T08:44:49;98714.13;;;27.37;37.41
9187;BME280;7273;48.902;9.410;2022-07-18T08:47:16;98721.84;;;27.47;37.29
9187;BME280;7273;48.902;9.410;2022-07-18T08:49:42;98716.88;;;27.60;37.32
9187;BME280;7273;48.902;9.410;2022-07-18T08:52:08;98720.59;;;27.67;37.02
9187;BME280;7273;48.902;9.410;2022-07-18T08:54:35;98718.41;;;27.80;36.97
9187;BME280;7273;48.902;9.410;2022-07-18T08:57:01;98715.13;;;27.74;37.24
9187;BME280;7273;48.902;9.410;2022-07-18T08:59:27;98715.06;;;27.94;36.83
9187;BME280;7273;48.902;9.410;2022-07-18T09:01:52;98722.88;;;28.11;36.93
9187;BME280;7273;48.902;9.410;2022-07-18T09:04:35;98722.59;;;28.19;35.76
9187;BME280;7273;48.902;9.410;2022-07-18T09:07:01;98724.56;;;28.19;36.92
9187;BME280;7273;48.902;9.410;2022-07-18T09:09:29;98727.63;;;28.36;36.62
9187;BME280;7273;48.902;9.410;2022-07-18T09:11:58;98725.28;;;28.42;36.56
9187;BME280;7273;48.902;9.410;2022-07-18T09:17:00;98727.25;;;28.67;36.29
9187;BME280;7273;48.902;9.410;2022-07-18T09:19:26;98720.16;;;28.73;36.23
9187;BME280;7273;48.902;9.410;2022-07-18T09:21:51;98731.41;;;28.80;36.14
9187;BME280;7273;48.902;9.410;2022-07-18T09:24:17;98724.28;;;28.86;36.02
9187;BME280;7273;48.902;9.410;2022-07-18T09:26:43;98712.94;;;29.02;35.83
9187;BME280;7273;48.902;9.410;2022-07-18T09:29:15;98718.81;;;28.93;35.57
9187;BME280;7273;48.902;9.410;2022-07-18T09:31:48;98718.13;;;29.07;34.97
9187;BME280;7273;48.902;9.410;2022-07-18T09:34:14;98714.63;;;29.10;35.65
9187;BME280;7273;48.902;9.410;2022-07-18T09:36:54;98715.97;;;29.23;34.07
9187;BME280;7273;48.902;9.410;2022-07-18T09:39:20;98713.56;;;29.22;35.40
9187;BME280;7273;48.902;9.410;2022-07-18T09:41:46;98711.25;;;29.31;35.32
9187;BME280;7273;48.902;9.410;2022-07-18T09:44:18;98708.41;;;29.27;34.37
9187;BME280;7273;48.902;9.410;2022-07-18T09:47:03;98709.47;;;29.12;32.65
9187;BME280;7273;48.902;9.410;2022-07-18T09:49:33;98708.72;;;29.19;34.53
9187;BME280;7273;48.902;9.410;2022-07-18T09:52:04;98701.19;;;29.19;34.54
9187;BME280;7273;48.902;9.410;2022-07-18T09:54:41;98704.47;;;29.28;34.04
9187;BME280;7273;48.902;9.410;2022-07-18T09:57:07;98712.44;;;29.33;34.83
9187;BME280;7273;48.902;9.410;2022-07-18T09:59:37;98706.88;;;29.33;34.57
9187;BME280;7273;48.902;9.410;2022-07-18T10:02:04;98704.22;;;29.47;34.30
9187;BME280;7273;48.902;9.410;2022-07-18T10:04:30;98704.91;;;29.34;34.52
9187;BME280;7273;48.902;9.410;2022-07-18T10:06:55;98703.53;;;29.57;33.98
9187;BME280;7273;48.902;9.410;2022-07-18T10:09:21;98708.94;;;29.83;33.83
9187;BME280;7273;48.902;9.410;2022-07-18T10:11:46;98703.78;;;29.85;33.66
9187;BME280;7273;48.902;9.410;2022-07-18T10:14:12;98701.44;;;29.94;33.50
9187;BME280;7273;48.902;9.410;2022-07-18T10:16:38;98697.91;;;30.04;33.42
9187;BME280;7273;48.902;9.410;2022-07-18T10:19:03;98694.72;;;30.06;33.02
9187;BME280;7273;48.902;9.410;2022-07-18T10:21:29;98695.09;;;30.01;32.96
9187;BME280;7273;48.902;9.410;2022-07-18T10:23:59;98694.00;;;30.16;32.53
9187;BME280;7273;48.902;9.410;2022-07-18T10:26:27;98694.03;;;30.19;32.85
9187;BME280;7273;48.902;9.410;2022-07-18T10:31:32;98700.50;;;30.34;31.75
9187;BME280;7273;48.902;9.410;2022-07-18T10:37:23;98700.94;;;30.43;32.17
9187;BME280;7273;48.902;9.410;2022-07-18T10:39:33;98695.84;;;30.63;31.93
9187;BME280;7273;48.902;9.410;2022-07-18T10:57:33;98684.09;;;31.36;31.84
9187;BME280;7273;48.902;9.410;2022-07-18T11:00:00;98671.72;;;31.44;32.08
9187;BME280;7273;48.902;9.410;2022-07-18T11:02:44;98684.09;;;31.61;30.04
9187;BME280;7273;48.902;9.410;2022-07-18T11:21:26;98667.16;;;32.48;30.08
9187;BME280;7273;48.902;9.410;2022-07-18T11:26:23;98662.25;;;32.66;29.13
9187;BME280;7273;48.902;9.410;2022-07-18T11:28:58;98656.31;;;32.54;28.58
9187;BME280;7273;48.902;9.410;2022-07-18T11:31:25;98654.59;;;32.78;29.95
9187;BME280;7273;48.902;9.410;2022-07-18T11:33:50;98660.78;;;32.23;30.51
9187;BME280;7273;48.902;9.410;2022-07-18T11:36:19;98648.28;;;32.56;30.03
9187;BME280;7273;48.902;9.410;2022-07-18T11:38:53;98651.34;;;32.83;29.09
9187;BME280;7273;48.902;9.410;2022-07-18T11:41:20;98644.94;;;32.82;29.61
9187;BME280;7273;48.902;9.410;2022-07-18T11:43:48;98652.91;;;32.94;29.56
9187;BME280;7273;48.902;9.410;2022-07-18T11:46:18;98651.38;;;32.75;29.62
9187;BME280;7273;48.902;9.410;2022-07-18T11:48:48;98634.41;;;33.04;28.85
9187;BME280;7273;48.902;9.410;2022-07-18T11:51:18;98630.78;;;33.07;28.44
9187;BME280;7273;48.902;9.410;2022-07-18T11:53:50;98630.72;;;33.17;28.32
9187;BME280;7273;48.902;9.410;2022-07-18T11:56:17;98630.25;;;33.26;28.79
9187;BME280;7273;48.902;9.410;2022-07-18T11:58:44;98622.88;;;33.46;28.59
9187;BME280;7273;48.902;9.410;2022-07-18T12:01:11;98626.41;;;33.06;29.14
9187;BME280;7273;48.902;9.410;2022-07-18T12:03:41;98630.97;;;33.37;28.07
9187;BME280;7273;48.902;9.410;2022-07-18T12:06:14;98629.44;;;32.67;28.60
9187;BME280;7273;48.902;9.410;2022-07-18T12:08:48;98622.47;;;32.96;27.58
9187;BME280;7273;48.902;9.410;2022-07-18T12:13:49;98618.50;;;33.45;28.30
9187;BME280;7273;48.902;9.410;2022-07-18T12:16:35;98619.09;;;33.66;26.81
9187;BME280;7273;48.902;9.410;2022-07-18T12:21:52;98607.97;;;33.56;26.60
9187;BME280;7273;48.902;9.410;2022-07-18T12:32:55;98600.03;;;33.88;25.83
9187;BME280;7273;48.902;9.410;2022-07-18T12:35:26;98603.25;;;33.86;27.58
9187;BME280;7273;48.902;9.410;2022-07-18T12:37:59;98598.88;;;33.82;27.66
9187;BME280;7273;48.902;9.410;2022-07-18T12:40:49;98595.75;;;33.76;25.72
9187;BME280;7273;48.902;9.410;2022-07-18T12:45:52;98593.38;;;34.09;27.90
9187;BME280;7273;48.902;9.410;2022-07-18T12:48:18;98593.28;;;34.19;27.54
9187;BME280;7273;48.902;9.410;2022-07-18T12:50:44;98593.50;;;34.32;27.25
9187;BME280;7273;48.902;9.410;2022-07-18T12:53:11;98595.84;;;34.37;27.26
9187;BME280;7273;48.902;9.410;2022-07-18T12:55:37;98594.34;;;33.95;27.80
9187;BME280;7273;48.902;9.410;2022-07-18T12:58:03;98585.53;;;34.27;27.34
9187;BME280;7273;48.902;9.410;2022-07-18T13:00:31;98584.94;;;33.75;27.86
9187;BME280;7273;48.902;9.410;2022-07-18T13:02:58;98580.34;;;33.51;28.13
9187;BME280;7273;48.902;9.410;2022-07-18T13:05:25;98583.31;;;33.30;27.85
9187;BME280;7273;48.902;9.410;2022-07-18T13:07:51;98574.78;;;33.47;27.69
9187;BME280;7273;48.902;9.410;2022-07-18T13:10:17;98575.97;;;33.50;27.79
9187;BME280;7273;48.902;9.410;2022-07-18T13:12:42;98572.69;;;33.55;27.52
9187;BME280;7273;48.902;9.410;2022-07-18T13:15:08;98574.28;;;33.56;27.76
9187;BME280;7273;48.902;9.410;2022-07-18T13:17:33;98579.03;;;33.62;27.48
9187;BME280;7273;48.902;9.410;2022-07-18T13:19:59;98572.13;;;33.26;27.98
9187;BME280;7273;48.902;9.410;2022-07-18T13:22:24;98570.28;;;33.09;28.08
9187;BME280;7273;48.902;9.410;2022-07-18T13:24:50;98575.75;;;33.27;27.37
9187;BME280;7273;48.902;9.410;2022-07-18T13:27:16;98577.75;;;33.26;27.52
9187;BME280;7273;48.902;9.410;2022-07-18T13:29:44;98565.66;;;33.33;27.49
9187;BME280;7273;48.902;9.410;2022-07-18T13:32:10;98565.97;;;33.01;27.72
9187;BME280;7273;48.902;9.410;2022-07-18T13:34:35;98566.28;;;33.07;27.75
9187;BME280;7273;48.902;9.410;2022-07-18T13:37:00;98568.91;;;33.28;27.40
9187;BME280;7273;48.902;9.410;2022-07-18T13:39:26;98560.16;;;33.22;27.34
9187;BME280;7273;48.902;9.410;2022-07-18T13:41:51;98556.44;;;33.36;27.18
9187;BME280;7273;48.902;9.410;2022-07-18T13:44:17;98552.78;;;33.42;27.45
9187;BME280;7273;48.902;9.410;2022-07-18T13:46:42;98543.97;;;33.44;27.37
9187;BME280;7273;48.902;9.410;2022-07-18T13:49:09;98552.00;;;33.42;27.41
9187;BME280;7273;48.902;9.410;2022-07-18T13:51:35;98550.75;;;33.43;27.16
9187;BME280;7273;48.902;9.410;2022-07-18T13:54:02;98550.00;;;33.39;27.06
9187;BME280;7273;48.902;9.410;2022-07-18T13:56:28;98551.19;;;33.38;27.09
9187;BME280;7273;48.902;9.410;2022-07-18T13:58:53;98551.63;;;33.33;26.98
9187;BME280;7273;48.902;9.410;2022-07-18T14:01:19;98552.00;;;33.42;27.00
9187;BME280;7273;48.902;9.410;2022-07-18T14:03:44;98553.13;;;33.48;26.96
9187;BME280;7273;48.902;9.410;2022-07-18T14:06:10;98544.31;;;33.46;26.91
9187;BME280;7273;48.902;9.410;2022-07-18T14:08:35;98545.94;;;33.47;27.00
9187;BME280;7273;48.902;9.410;2022-07-18T14:11:02;98537.16;;;33.38;26.80
9187;BME280;7273;48.902;9.410;2022-07-18T14:13:28;98545.56;;;33.41;27.06
9187;BME280;7273;48.902;9.410;2022-07-18T14:15:53;98538.38;;;33.37;26.74
9187;BME280;7273;48.902;9.410;2022-07-18T14:18:18;98542.75;;;33.38;26.81